Time;durP1;ratioP1;P1;durP2;ratioP2;P2;SDS_P1;SDS_P2;PMS_P1;PMS_P2;Temp;Humidity;BMP_temperature;BMP_pressure;BME280_temperature;BME280_humidity;BME280_pressure;Samples;Min_cycle;Max_cycle;Signal;HPM_P1;HPM_P2
2023/06/10 00:01:37;;;;;;;11.48;6.32;;;;;;;22.37;100.00;100480.88;5158438;27;20018;-77
2023/06/10 00:04:23;;;;;;;10.23;6.82;;;;;;;22.49;100.00;100480.06;5159274;27;20031;-76
2023/06/10 00:07:09;;;;;;;12.05;6.72;;;;;;;22.23;100.00;100480.13;5158377;27;20057;-76
2023/06/10 00:09:55;;;;;;;10.65;6.40;;;;;;;22.54;100.00;100477.91;5158274;27;20065;-76
2023/06/10 00:12:41;;;;;;;18.13;7.13;;;;;;;22.42;100.00;100483.25;5157021;27;20031;-70
2023/06/10 00:15:27;;;;;;;9.48;6.50;;;;;;;22.55;100.00;100484.13;5155060;27;20022;-71
2023/06/10 00:18:14;;;;;;;13.50;6.90;;;;;;;22.47;100.00;100491.81;5157142;27;20122;-71
2023/06/10 00:21:04;;;;;;;11.70;6.22;;;;;;;22.21;100.00;100484.69;5157642;27;20046;-71
2023/06/10 00:23:50;;;;;;;9.80;5.70;;;;;;;21.88;100.00;100485.19;5157460;27;20178;-70
2023/06/10 00:26:35;;;;;;;7.82;5.72;;;;;;;21.82;100.00;100482.94;5157605;27;20034;-71
2023/06/10 00:29:21;;;;;;;7.47;5.53;;;;;;;21.59;100.00;100483.59;5157412;27;20095;-71
2023/06/10 00:32:07;;;;;;;7.95;6.05;;;;;;;21.38;100.00;100486.81;5157394;27;20023;-71
2023/06/10 00:34:53;;;;;;;10.02;5.97;;;;;;;21.27;100.00;100484.84;5157320;27;20027;-71
2023/06/10 00:37:38;;;;;;;8.43;5.82;;;;;;;21.29;100.00;100474.06;5156612;27;20022;-72
2023/06/10 00:40:24;;;;;;;10.02;5.35;;;;;;;21.32;100.00;100482.72;5156720;27;20051;-71
2023/06/10 00:43:10;;;;;;;13.98;6.10;;;;;;;21.51;100.00;100487.72;5156690;27;20347;-71
2023/06/10 00:45:56;;;;;;;7.53;5.28;;;;;;;21.44;100.00;100500.59;5155468;27;20095;-72
2023/06/10 00:48:43;;;;;;;8.60;5.68;;;;;;;21.42;100.00;100499.81;5157908;27;20443;-71
2023/06/10 00:51:29;;;;;;;7.55;5.65;;;;;;;21.52;100.00;100494.75;5157863;27;20034;-70
2023/06/10 00:54:15;;;;;;;8.60;5.45;;;;;;;21.45;100.00;100491.63;5157783;27;20026;-71
2023/06/10 00:57:01;;;;;;;7.00;5.32;;;;;;;21.62;100.00;100499.38;5158664;27;20023;-74
2023/06/10 00:59:49;;;;;;;9.30;5.65;;;;;;;21.30;100.00;100495.28;5161540;27;20023;-75
2023/06/10 01:02:35;;;;;;;9.65;5.75;;;;;;;21.13;100.00;100486.69;5166769;27;20041;-73
2023/06/10 01:05:22;;;;;;;8.85;5.60;;;;;;;20.66;100.00;100492.31;5169861;27;20041;-72
2023/06/10 01:08:15;;;;;;;9.68;5.80;;;;;;;20.74;100.00;100494.50;5167917;27;20030;-74
2023/06/10 01:11:03;;;;;;;8.02;5.43;;;;;;;21.24;100.00;100497.50;5172812;27;20038;-73
2023/06/10 01:13:51;;;;;;;8.73;5.55;;;;;;;21.47;100.00;100491.53;5169794;27;20122;-73
2023/06/10 01:16:37;;;;;;;11.00;6.00;;;;;;;21.27;100.00;100500.84;5170783;27;20068;-72
2023/06/10 01:19:23;;;;;;;8.35;5.40;;;;;;;21.16;100.00;100492.66;5169196;27;20043;-72
2023/06/10 01:22:10;;;;;;;8.50;5.55;;;;;;;21.17;100.00;100499.69;5165278;27;20030;-72
2023/06/10 01:24:59;;;;;;;9.70;5.57;;;;;;;20.80;100.00;100483.47;5168859;27;20086;-73
2023/06/10 01:27:48;;;;;;;10.18;5.90;;;;;;;20.75;100.00;100485.56;5158907;27;20034;-71
2023/06/10 01:31:00;;;;;;;11.57;6.45;;;;;;;20.72;100.00;100475.97;5162460;27;20023;-71
2023/06/10 01:33:48;;;;;;;9.48;5.60;;;;;;;20.46;100.00;100481.19;5159085;27;20070;-78
2023/06/10 01:36:36;;;;;;;9.15;5.47;;;;;;;20.79;100.00;100484.41;5156364;27;20031;-76
2023/06/10 01:39:24;;;;;;;8.27;5.28;;;;;;;20.30;100.00;100475.97;5157039;27;20015;-77
2023/06/10 01:42:11;;;;;;;7.57;5.45;;;;;;;20.23;100.00;100473.75;5159181;27;20034;-74
2023/06/10 01:44:58;;;;;;;9.65;5.50;;;;;;;20.52;100.00;100468.34;5175101;27;20033;-74
2023/06/10 01:47:43;;;;;;;8.00;5.18;;;;;;;20.28;100.00;100463.69;5178036;27;20050;-74
2023/06/10 01:50:29;;;;;;;9.27;5.70;;;;;;;20.42;100.00;100469.91;5177269;27;20033;-74
2023/06/10 01:53:15;;;;;;;8.98;5.25;;;;;;;20.76;100.00;100472.16;5166578;27;20052;-73
2023/06/10 01:56:01;;;;;;;9.45;5.95;;;;;;;20.87;100.00;100467.00;5163841;27;20121;-72
2023/06/10 01:58:47;;;;;;;7.72;5.32;;;;;;;20.73;100.00;100469.69;5165329;27;20048;-74
2023/06/10 02:01:33;;;;;;;7.97;5.97;;;;;;;20.89;100.00;100466.91;5161368;27;20091;-74
2023/06/10 02:04:19;;;;;;;9.77;5.25;;;;;;;20.77;100.00;100479.19;5161134;27;20030;-73
2023/06/10 02:07:05;;;;;;;7.05;5.30;;;;;;;20.81;100.00;100467.38;5160161;27;20026;-76
2023/06/10 02:09:51;;;;;;;7.78;5.18;;;;;;;20.89;100.00;100456.28;5158655;27;20581;-75
2023/06/10 02:12:37;;;;;;;8.43;4.88;;;;;;;20.96;100.00;100461.13;5152474;27;20512;-75
2023/06/10 02:15:22;;;;;;;9.30;4.80;;;;;;;21.11;100.00;100465.47;5158985;27;20023;-75
2023/06/10 02:18:09;;;;;;;5.90;4.72;;;;;;;21.06;100.00;100474.72;5162460;27;20022;-75
2023/06/10 02:20:55;;;;;;;7.22;5.18;;;;;;;20.95;100.00;100479.88;5163287;27;20038;-75
2023/06/10 02:23:40;;;;;;;6.03;4.80;;;;;;;21.01;100.00;100492.81;5165555;27;20034;-77
2023/06/10 02:26:26;;;;;;;7.30;4.60;;;;;;;20.87;100.00;100498.97;5165208;27;20018;-76
2023/06/10 02:29:12;;;;;;;9.23;5.15;;;;;;;20.80;100.00;100496.78;5166026;27;20033;-78
2023/06/10 02:31:58;;;;;;;9.73;4.93;;;;;;;20.80;100.00;100505.63;5165006;27;20033;-75
2023/06/10 02:34:43;;;;;;;7.30;4.85;;;;;;;21.03;100.00;100499.75;5173775;27;20065;-74
2023/06/10 02:37:29;;;;;;;8.02;4.80;;;;;;;20.79;100.00;100500.38;5176565;27;20033;-74
2023/06/10 02:40:15;;;;;;;7.22;5.20;;;;;;;20.70;100.00;100499.16;5174187;27;20087;-75
2023/06/10 02:43:01;;;;;;;7.65;4.68;;;;;;;20.55;100.00;100512.56;5174961;27;20053;-74
2023/06/10 02:45:46;;;;;;;8.15;4.90;;;;;;;20.21;100.00;100518.22;5177332;27;20041;-73
2023/06/10 02:48:41;;;;;;;8.15;5.22;;;;;;;20.08;100.00;100518.06;5177655;27;20026;-74
2023/06/10 02:51:27;;;;;;;8.95;4.90;;;;;;;20.27;100.00;100507.22;5176598;27;20011;-74
2023/06/10 02:54:13;;;;;;;9.90;5.85;;;;;;;20.12;100.00;100503.66;5176066;27;20033;-73
2023/06/10 02:56:58;;;;;;;8.48;4.78;;;;;;;20.41;100.00;100516.06;5175223;27;20018;-74
2023/06/10 02:59:45;;;;;;;8.50;5.55;;;;;;;20.35;100.00;100508.47;5176414;27;20062;-74
2023/06/10 03:02:31;;;;;;;9.52;6.60;;;;;;;20.42;100.00;100508.94;5177418;27;20410;-74
2023/06/10 03:05:17;;;;;;;11.32;7.65;;;;;;;20.31;100.00;100522.91;5174806;27;20011;-75
2023/06/10 03:08:03;;;;;;;12.18;7.93;;;;;;;20.08;100.00;100518.06;5178133;27;20086;-74
2023/06/10 03:10:48;;;;;;;13.30;9.25;;;;;;;19.83;100.00;100530.22;5175451;27;20030;-75
2023/06/10 03:13:34;;;;;;;13.77;8.70;;;;;;;19.96;100.00;100517.91;5159171;27;20030;-74
2023/06/10 03:16:20;;;;;;;17.10;10.77;;;;;;;20.10;100.00;100528.66;5156199;27;20022;-74
2023/06/10 03:19:07;;;;;;;19.83;10.48;;;;;;;19.62;100.00;100519.06;5156154;27;20054;-74
2023/06/10 03:22:28;;;;;;;15.82;10.63;;;;;;;19.60;100.00;100520.94;5156869;27;20029;-74
2023/06/10 03:25:14;;;;;;;18.15;10.40;;;;;;;19.95;100.00;100519.75;5093103;28;20403;-74
2023/06/10 03:28:00;;;;;;;15.30;10.38;;;;;;;20.04;100.00;100521.84;5155838;27;20038;-75
2023/06/10 03:30:46;;;;;;;17.08;10.02;;;;;;;19.57;100.00;100520.25;5155164;27;20364;-73
2023/06/10 03:33:32;;;;;;;16.95;9.68;;;;;;;20.21;100.00;100528.88;5155478;27;20030;-74
2023/06/10 03:36:18;;;;;;;16.73;9.50;;;;;;;19.77;100.00;100525.28;5154985;27;20038;-75
2023/06/10 03:39:04;;;;;;;14.63;9.32;;;;;;;19.88;100.00;100537.00;5154915;27;20042;-74
2023/06/10 03:41:50;;;;;;;15.80;9.38;;;;;;;19.76;100.00;100524.41;5155279;27;20400;-75
2023/06/10 03:44:38;;;;;;;14.38;8.50;;;;;;;19.79;100.00;100532.22;5155295;27;20059;-75
2023/06/10 03:47:23;;;;;;;12.70;8.00;;;;;;;19.78;100.00;100530.50;5154591;27;20037;-75
2023/06/10 03:50:09;;;;;;;16.50;8.18;;;;;;;19.80;100.00;100522.44;5155458;27;20018;-75
2023/06/10 03:52:55;;;;;;;11.48;7.53;;;;;;;19.72;100.00;100528.19;5154780;27;20034;-74
2023/06/10 03:55:41;;;;;;;11.50;7.85;;;;;;;20.15;100.00;100526.56;5154428;27;20023;-75
2023/06/10 03:58:27;;;;;;;13.82;7.65;;;;;;;20.13;100.00;100523.16;5154050;27;20030;-75
2023/06/10 04:01:17;;;;;;;13.38;8.10;;;;;;;20.38;100.00;100534.03;5154934;27;20043;-75
2023/06/10 04:04:03;;;;;;;12.77;6.95;;;;;;;20.64;100.00;100534.16;5155519;27;20106;-75
2023/06/10 04:06:49;;;;;;;10.80;7.28;;;;;;;20.15;100.00;100543.41;5154593;27;20023;-75
2023/06/10 04:09:36;;;;;;;13.73;7.07;;;;;;;20.12;100.00;100546.22;5154311;27;20109;-74
2023/06/10 04:12:21;;;;;;;12.23;7.03;;;;;;;20.22;100.00;100541.22;5153032;27;20114;-74
2023/06/10 04:15:07;;;;;;;14.60;7.13;;;;;;;20.91;100.00;100548.47;5154025;27;20053;-74
2023/06/10 04:17:53;;;;;;;16.70;6.97;;;;;;;20.55;100.00;100552.50;5154425;27;20023;-74
2023/06/10 04:20:39;;;;;;;19.35;6.82;;;;;;;20.93;100.00;100556.38;5165416;27;20078;-75
2023/06/10 04:23:26;;;;;;;14.75;7.05;;;;;;;20.66;100.00;100553.53;5155010;27;20026;-75
2023/06/10 04:26:15;;;;;;;10.50;7.15;;;;;;;21.02;100.00;100553.13;5154862;27;20023;-74
2023/06/10 04:29:01;;;;;;;10.68;7.03;;;;;;;21.27;100.00;100551.47;5154375;27;20037;-75
2023/06/10 04:31:46;;;;;;;12.35;7.20;;;;;;;21.16;100.00;100545.09;5154578;27;20030;-74
2023/06/10 04:34:36;;;;;;;13.98;7.18;;;;;;;20.80;100.00;100548.22;5156575;27;20437;-73
2023/06/10 04:37:22;;;;;;;12.23;6.97;;;;;;;21.10;100.00;100541.00;5158037;27;20042;-75
2023/06/10 04:40:08;;;;;;;13.15;6.95;;;;;;;20.81;100.00;100543.78;5159220;27;20053;-74
2023/06/10 04:42:54;;;;;;;12.20;7.00;;;;;;;20.79;100.00;100546.53;5161378;27;20087;-74
2023/06/10 04:45:40;;;;;;;15.93;7.53;;;;;;;21.36;100.00;100545.53;5158646;27;20087;-74
2023/06/10 04:48:26;;;;;;;11.82;7.53;;;;;;;20.15;100.00;100543.41;5158668;27;20109;-75
2023/06/10 04:51:11;;;;;;;15.70;7.55;;;;;;;20.73;100.00;100548.72;5157129;27;20065;-75
2023/06/10 04:53:58;;;;;;;12.00;6.97;;;;;;;21.47;100.00;100548.38;5157383;27;20038;-75
2023/06/10 04:56:44;;;;;;;14.50;7.32;;;;;;;21.52;100.00;100556.06;5157815;27;20019;-75
2023/06/10 04:59:29;;;;;;;15.73;7.32;;;;;;;21.76;100.00;100549.16;5157998;27;20106;-75
2023/06/10 05:02:15;;;;;;;15.45;7.90;;;;;;;21.65;100.00;100547.16;5158167;27;20086;-75
2023/06/10 05:05:01;;;;;;;10.15;7.07;;;;;;;20.94;100.00;100539.44;5157370;27;20034;-76
2023/06/10 05:07:47;;;;;;;11.25;7.57;;;;;;;21.34;100.00;100544.78;5157861;27;20026;-75
2023/06/10 05:10:34;;;;;;;9.88;7.25;;;;;;;21.70;100.00;100544.22;5157283;27;20019;-75
2023/06/10 05:13:19;;;;;;;10.18;7.28;;;;;;;22.05;100.00;100543.59;5157765;27;20023;-75
2023/06/10 05:16:06;;;;;;;10.63;7.22;;;;;;;21.38;100.00;100548.13;5158115;27;20458;-75
2023/06/10 05:18:52;;;;;;;12.48;7.65;;;;;;;21.82;100.00;100549.63;5156753;27;20058;-76
2023/06/10 05:21:38;;;;;;;16.95;7.47;;;;;;;22.10;100.00;100551.31;5157797;27;20090;-75
2023/06/10 05:24:23;;;;;;;10.63;6.95;;;;;;;22.50;100.00;100542.31;5155416;27;20038;-75
2023/06/10 05:27:09;;;;;;;11.25;7.05;;;;;;;22.70;100.00;100539.09;5157882;27;20015;-75
2023/06/10 05:29:56;;;;;;;11.70;7.63;;;;;;;22.10;100.00;100546.81;5156246;27;20026;-75
2023/06/10 05:32:42;;;;;;;9.27;7.05;;;;;;;22.44;100.00;100548.91;5156131;27;20026;-75
2023/06/10 05:35:27;;;;;;;14.27;7.47;;;;;;;22.73;100.00;100545.09;5157565;27;20018;-76
2023/06/10 05:38:13;;;;;;;11.95;7.60;;;;;;;22.72;100.00;100548.75;5156985;27;20034;-75
2023/06/10 05:40:59;;;;;;;10.23;7.10;;;;;;;23.04;100.00;100550.00;5157968;27;20464;-75
2023/06/10 05:43:45;;;;;;;11.98;7.72;;;;;;;22.91;100.00;100557.16;5155614;27;20046;-76
2023/06/10 05:46:31;;;;;;;13.95;7.40;;;;;;;22.84;100.00;100558.56;5156976;27;20045;-75
2023/06/10 05:49:16;;;;;;;12.20;6.95;;;;;;;23.10;100.00;100560.25;5155851;27;20033;-74
2023/06/10 05:52:02;;;;;;;9.40;6.65;;;;;;;23.05;100.00;100564.19;5156200;27;20034;-76
2023/06/10 05:54:49;;;;;;;10.60;6.65;;;;;;;23.38;100.00;100563.66;5156761;27;20052;-75
2023/06/10 05:57:35;;;;;;;10.30;6.78;;;;;;;23.67;100.00;100563.22;5155965;27;20385;-75
2023/06/10 06:00:21;;;;;;;9.95;6.70;;;;;;;23.08;100.00;100566.66;5155950;27;20015;-76
2023/06/10 06:03:10;;;;;;;10.60;7.05;;;;;;;22.45;100.00;100566.63;5155607;27;20043;-75
2023/06/10 06:05:56;;;;;;;9.57;6.45;;;;;;;23.28;100.00;100566.97;5155524;27;20027;-75
2023/06/10 06:08:42;;;;;;;8.27;6.47;;;;;;;23.30;100.00;100566.84;5155965;27;20026;-75
2023/06/10 06:11:27;;;;;;;9.77;6.55;;;;;;;23.96;100.00;100569.13;5155765;27;20090;-75
2023/06/10 06:14:13;;;;;;;15.63;6.93;;;;;;;23.87;100.00;100570.59;5155677;27;20074;-76
2023/06/10 06:16:59;;;;;;;10.70;6.28;;;;;;;22.30;100.00;100574.84;5156035;27;20022;-76
2023/06/10 06:19:47;;;;;;;10.32;6.80;;;;;;;23.39;100.00;100574.22;5155951;27;20053;-76
2023/06/10 06:22:32;;;;;;;12.50;7.18;;;;;;;23.42;100.00;100579.34;5154520;27;20109;-75
2023/06/10 06:25:18;;;;;;;10.95;6.97;;;;;;;23.27;100.00;100575.94;5154591;27;20027;-76
2023/06/10 06:28:09;;;;;;;16.20;7.05;;;;;;;23.38;100.00;100572.50;5156756;27;20038;-75
2023/06/10 06:30:55;;;;;;;11.18;6.18;;;;;;;23.60;100.00;100572.66;5155491;27;20045;-75
2023/06/10 06:33:41;;;;;;;14.90;6.78;;;;;;;23.37;100.00;100570.81;5140611;27;20018;-76
2023/06/10 06:36:27;;;;;;;16.23;6.07;;;;;;;23.90;100.00;100566.88;5156667;27;20058;-76
2023/06/10 06:39:13;;;;;;;14.82;6.60;;;;;;;24.17;100.00;100567.50;5154661;27;20019;-75
2023/06/10 06:41:59;;;;;;;21.42;7.65;;;;;;;24.18;100.00;100563.88;5154580;27;20363;-76
2023/06/10 06:44:46;;;;;;;9.88;6.35;;;;;;;24.20;100.00;100567.25;5154582;27;20034;-75
2023/06/10 06:47:31;;;;;;;11.32;6.10;;;;;;;24.16;100.00;100563.97;5155224;27;20026;-75
2023/06/10 06:50:17;;;;;;;11.43;7.10;;;;;;;24.44;100.00;100573.44;5154165;27;20415;-75
2023/06/10 06:53:03;;;;;;;7.72;5.82;;;;;;;23.80;100.00;100563.16;5155958;27;20091;-75
2023/06/10 06:55:49;;;;;;;10.77;6.28;;;;;;;23.97;100.00;100568.13;5155761;27;20022;-75
2023/06/10 06:58:35;;;;;;;8.98;6.00;;;;;;;24.20;100.00;100570.81;5155525;27;20027;-75
2023/06/10 07:01:21;;;;;;;9.82;6.10;;;;;;;23.74;100.00;100558.28;5154435;27;20472;-75
2023/06/10 07:04:06;;;;;;;8.70;6.40;;;;;;;23.74;100.00;100555.59;5155027;27;20082;-76
2023/06/10 07:06:52;;;;;;;10.15;6.13;;;;;;;24.01;100.00;100562.44;5155597;27;20019;-76
2023/06/10 07:09:38;;;;;;;10.27;6.45;;;;;;;23.71;100.00;100553.97;5155757;27;20022;-76
2023/06/10 07:12:23;;;;;;;8.52;6.20;;;;;;;24.30;100.00;100554.91;5153902;27;20014;-75
2023/06/10 07:15:09;;;;;;;10.30;6.22;;;;;;;24.23;100.00;100559.00;5153490;27;20025;-75
2023/06/10 07:17:55;;;;;;;9.60;6.53;;;;;;;23.62;100.00;100556.50;5155033;27;20025;-75
2023/06/10 07:20:41;;;;;;;10.02;6.95;;;;;;;23.95;100.00;100557.53;5153043;27;20049;-76
2023/06/10 07:23:27;;;;;;;10.02;6.65;;;;;;;24.56;100.00;100556.41;5154840;27;20037;-75
2023/06/10 07:26:13;;;;;;;9.02;5.78;;;;;;;24.82;100.00;100555.25;5154020;27;20027;-74
2023/06/10 07:28:58;;;;;;;9.45;6.40;;;;;;;24.60;100.00;100556.06;5155343;27;20109;-75
2023/06/10 07:31:44;;;;;;;22.02;6.75;;;;;;;24.74;100.00;100561.22;5153642;27;20471;-76
2023/06/10 07:34:30;;;;;;;10.07;6.53;;;;;;;24.81;100.00;100554.41;5154760;27;20038;-75
2023/06/10 07:37:16;;;;;;;9.90;7.30;;;;;;;25.44;100.00;100557.31;5154674;27;20037;-75
2023/06/10 07:40:02;;;;;;;10.55;7.00;;;;;;;25.20;100.00;100553.91;5154375;27;20074;-76
2023/06/10 07:42:47;;;;;;;10.00;6.65;;;;;;;25.16;100.00;100555.13;5154788;27;20084;-76
2023/06/10 07:45:33;;;;;;;9.40;6.95;;;;;;;25.08;100.00;100554.88;5154355;27;20027;-75
2023/06/10 07:48:19;;;;;;;12.85;7.25;;;;;;;25.35;100.00;100563.44;5154618;27;20027;-75
2023/06/10 07:51:05;;;;;;;10.27;6.93;;;;;;;25.56;100.00;100560.88;5153852;27;20029;-74
2023/06/10 07:53:50;;;;;;;12.27;6.88;;;;;;;25.47;99.76;100562.47;5155364;27;20084;-73
2023/06/10 07:56:36;;;;;;;8.82;6.85;;;;;;;25.83;97.38;100563.94;5154210;27;20416;-74
2023/06/10 07:59:22;;;;;;;9.57;6.45;;;;;;;25.27;99.62;100556.97;5155360;27;20099;-74
2023/06/10 08:02:07;;;;;;;8.77;6.65;;;;;;;25.92;97.16;100561.34;5153168;27;20456;-74
2023/06/10 08:04:53;;;;;;;11.45;7.28;;;;;;;25.92;94.03;100563.22;5154466;27;20091;-74
2023/06/10 08:07:40;;;;;;;11.50;7.35;;;;;;;24.93;99.99;100557.94;5154806;27;20027;-74
2023/06/10 08:10:25;;;;;;;14.43;6.93;;;;;;;26.14;92.21;100555.94;5157315;27;20034;-73
2023/06/10 08:13:11;;;;;;;10.25;6.30;;;;;;;26.20;86.83;100554.56;5158305;27;20031;-73
2023/06/10 08:15:57;;;;;;;8.95;6.18;;;;;;;25.87;90.53;100555.53;5157221;27;20057;-74
2023/06/10 08:18:42;;;;;;;12.07;6.80;;;;;;;25.96;93.58;100556.63;5157149;27;20037;-74
2023/06/10 08:21:28;;;;;;;10.93;6.47;;;;;;;26.94;89.65;100547.16;5158179;27;20018;-74
2023/06/10 08:24:16;;;;;;;10.90;7.18;;;;;;;25.94;97.31;100558.56;5157909;27;20170;-74
2023/06/10 08:27:02;;;;;;;11.85;7.53;;;;;;;26.00;97.09;100550.84;5157155;27;20073;-73
2023/06/10 08:29:47;;;;;;;9.80;7.05;;;;;;;26.18;94.38;100549.31;5157939;27;20393;-73
2023/06/10 08:32:33;;;;;;;14.73;7.72;;;;;;;26.11;95.99;100550.81;5156736;27;20332;-74
2023/06/10 08:35:19;;;;;;;18.33;7.82;;;;;;;25.33;100.00;100551.13;5156570;27;20023;-72
2023/06/10 08:38:04;;;;;;;14.95;7.70;;;;;;;25.67;99.29;100547.41;5157801;27;20040;-73
2023/06/10 08:40:56;;;;;;;12.38;7.68;;;;;;;25.48;99.58;100555.28;5156740;27;20054;-74
2023/06/10 08:44:02;;;;;;;13.05;7.85;;;;;;;25.86;97.40;100555.66;5156858;27;20103;-74
2023/06/10 08:46:49;;;;;;;19.77;8.60;;;;;;;25.67;98.87;100555.44;5158144;27;20015;-73
2023/06/10 08:49:41;;;;;;;14.05;8.35;;;;;;;25.52;99.30;100552.19;5158709;27;20023;-75
2023/06/10 08:52:29;;;;;;;12.43;7.90;;;;;;;26.20;94.74;100550.03;5157514;27;20378;-74
2023/06/10 08:55:19;;;;;;;14.23;8.43;;;;;;;26.32;94.71;100548.16;5156555;27;20027;-74
2023/06/10 08:58:06;;;;;;;10.52;7.80;;;;;;;26.79;93.51;100543.13;5157714;27;20050;-74
2023/06/10 09:00:52;;;;;;;17.08;8.80;;;;;;;26.38;94.83;100535.06;5156918;27;20019;-74
2023/06/10 09:03:39;;;;;;;18.92;8.75;;;;;;;26.15;95.20;100543.34;5156908;27;20026;-73
2023/06/10 09:06:26;;;;;;;13.38;8.60;;;;;;;25.68;100.00;100539.22;5156787;27;20027;-75
2023/06/10 09:09:13;;;;;;;14.07;8.40;;;;;;;26.76;93.22;100535.31;5157174;27;20122;-75
2023/06/10 09:11:59;;;;;;;12.43;8.23;;;;;;;26.95;92.12;100537.22;5157572;27;20029;-71
2023/06/10 09:14:44;;;;;;;14.27;9.70;;;;;;;27.15;88.61;100534.50;5157551;27;20019;-71
2023/06/10 09:17:31;;;;;;;12.95;9.10;;;;;;;27.43;87.13;100531.06;5156473;27;20122;-73
2023/06/10 09:20:16;;;;;;;13.82;8.30;;;;;;;26.92;88.96;100530.28;5156102;27;20460;-72
2023/06/10 09:23:02;;;;;;;12.05;8.32;;;;;;;27.10;83.98;100531.38;5158304;27;20039;-71
2023/06/10 09:25:57;;;;;;;13.50;7.22;;;;;;;26.86;82.76;100521.91;5156330;27;20056;-73
2023/06/10 09:28:48;;;;;;;14.35;8.57;;;;;;;27.09;87.30;100520.75;5156886;27;20038;-72
2023/06/10 09:31:35;;;;;;;16.00;9.10;;;;;;;27.62;84.45;100524.88;5156479;27;20061;-73
2023/06/10 09:34:25;;;;;;;13.15;8.60;;;;;;;27.40;88.14;100519.72;5157025;27;20114;-73
2023/06/10 09:37:13;;;;;;;15.02;8.38;;;;;;;27.49;86.60;100517.06;5156737;27;20022;-72
2023/06/10 09:40:07;;;;;;;13.65;8.45;;;;;;;27.67;88.12;100522.59;5155423;27;20044;-73
2023/06/10 09:42:55;;;;;;;13.00;8.15;;;;;;;27.91;85.77;100512.31;5156072;27;20367;-72
2023/06/10 09:45:43;;;;;;;11.80;7.90;;;;;;;27.86;81.10;100509.22;5156068;27;20061;-71
2023/06/10 09:48:28;;;;;;;15.80;8.27;;;;;;;27.79;84.49;100507.16;5156484;27;20034;-72
2023/06/10 09:51:16;;;;;;;10.73;7.93;;;;;;;28.37;80.99;100512.41;5156060;27;20027;-72
2023/06/10 09:54:03;;;;;;;12.18;7.07;;;;;;;28.30;76.68;100518.53;5155316;27;20055;-73
2023/06/10 09:56:51;;;;;;;12.70;7.60;;;;;;;28.32;78.78;100511.16;5155990;27;20027;-72
2023/06/10 09:59:38;;;;;;;13.25;7.38;;;;;;;28.37;75.04;100514.28;5155846;27;20028;-72
2023/06/10 10:02:23;;;;;;;11.68;6.75;;;;;;;28.05;73.88;100506.50;5155715;27;20031;-73
2023/06/10 10:05:09;;;;;;;13.40;7.18;;;;;;;28.37;75.26;100509.72;5149839;27;20023;-75
2023/06/10 10:07:56;;;;;;;13.02;6.60;;;;;;;28.29;73.76;100504.19;5153956;27;20068;-73
2023/06/10 10:10:42;;;;;;;11.57;6.95;;;;;;;28.81;70.50;100500.13;5154778;27;20368;-72
2023/06/10 10:13:28;;;;;;;12.43;6.00;;;;;;;28.93;65.08;100497.09;5155941;27;20110;-74
2023/06/10 10:16:19;;;;;;;10.57;5.72;;;;;;;29.08;63.94;100498.34;5156370;27;20083;-74
2023/06/10 10:19:11;;;;;;;10.23;5.78;;;;;;;28.86;63.50;100496.00;5155109;27;20077;-73
2023/06/10 10:22:05;;;;;;;7.88;4.93;;;;;;;28.79;59.54;100499.41;5141205;27;20125;-75
2023/06/10 10:24:55;;;;;;;7.13;5.55;;;;;;;29.11;61.51;100494.47;5155761;27;20435;-75
2023/06/10 10:27:51;;;;;;;8.75;5.75;;;;;;;29.11;63.61;100498.03;5154288;27;20031;-75
2023/06/10 10:30:43;;;;;;;9.18;5.80;;;;;;;28.86;62.79;100492.44;5154310;27;20065;-74
2023/06/10 10:33:40;;;;;;;11.18;5.13;;;;;;;29.27;61.85;100489.28;5153822;27;20393;-74
2023/06/10 10:36:27;;;;;;;7.60;5.25;;;;;;;29.42;61.28;100485.06;5154952;27;20044;-76
2023/06/10 10:39:14;;;;;;;6.80;5.28;;;;;;;29.38;60.15;100475.56;5154779;27;20026;-74
2023/06/10 10:42:03;;;;;;;8.75;4.85;;;;;;;28.99;59.38;100469.53;5155367;27;20363;-74
2023/06/10 10:44:49;;;;;;;9.00;5.13;;;;;;;29.20;60.35;100471.97;5154000;27;20054;-75
2023/06/10 10:47:37;;;;;;;12.35;5.22;;;;;;;29.86;58.68;100463.41;5154131;27;20022;-74
2023/06/10 10:50:24;;;;;;;16.77;5.53;;;;;;;30.01;56.70;100459.16;5154594;27;20050;-75
2023/06/10 10:53:09;;;;;;;9.18;4.78;;;;;;;29.65;55.90;100460.19;5154291;27;20057;-74
2023/06/10 10:56:15;;;;;;;7.65;4.70;;;;;;;30.36;54.27;100458.28;5154394;27;20106;-74
2023/06/10 10:59:05;;;;;;;7.45;4.70;;;;;;;29.49;54.33;100467.28;5153236;27;20026;-75
2023/06/10 11:01:51;;;;;;;8.55;5.00;;;;;;;29.42;54.83;100467.03;5135746;27;20110;-74
2023/06/10 11:04:37;;;;;;;7.70;4.70;;;;;;;29.85;52.40;100459.03;5133666;27;20046;-74
2023/06/10 11:07:24;;;;;;;11.95;4.80;;;;;;;30.07;51.66;100453.16;5134329;27;20031;-76
2023/06/10 11:10:12;;;;;;;7.78;4.57;;;;;;;29.85;47.81;100450.94;5133194;27;20038;-75
2023/06/10 11:12:58;;;;;;;7.50;4.40;;;;;;;29.81;45.95;100454.13;5134109;27;20023;-75
2023/06/10 11:15:46;;;;;;;7.18;4.07;;;;;;;29.83;44.67;100455.66;5150161;27;20110;-74
2023/06/10 11:18:39;;;;;;;7.30;4.15;;;;;;;30.06;39.76;100447.91;5147316;27;20027;-75
2023/06/10 11:21:25;;;;;;;5.38;4.10;;;;;;;30.22;39.29;100434.53;5146650;27;20114;-75
2023/06/10 11:24:13;;;;;;;6.13;3.45;;;;;;;30.11;36.72;100437.47;5134030;28;20030;-76
2023/06/10 11:27:19;;;;;;;19.08;4.22;;;;;;;30.18;37.56;100428.59;5134073;28;20034;-73
2023/06/10 11:30:05;;;;;;;7.30;4.15;;;;;;;30.31;36.55;100433.56;5133978;28;20027;-75
2023/06/10 11:32:52;;;;;;;7.72;3.72;;;;;;;29.64;37.48;100433.34;5133860;28;20083;-74
2023/06/10 11:35:39;;;;;;;8.20;4.15;;;;;;;30.32;37.66;100422.59;5134435;28;20038;-75
2023/06/10 11:38:26;;;;;;;7.28;4.28;;;;;;;30.75;36.96;100422.56;5146401;27;20038;-75
2023/06/10 11:41:13;;;;;;;8.88;4.13;;;;;;;30.81;38.72;100413.75;5134191;28;20486;-75
2023/06/10 11:44:06;;;;;;;8.82;4.35;;;;;;;30.25;37.66;100409.88;5151168;27;20164;-75
2023/06/10 11:46:52;;;;;;;6.80;4.28;;;;;;;30.57;36.83;100410.91;5151324;27;20046;-75
2023/06/10 11:49:38;;;;;;;10.75;3.90;;;;;;;30.47;36.53;100406.63;5137826;27;20047;-75
2023/06/10 11:52:28;;;;;;;7.78;4.47;;;;;;;31.31;36.40;100401.06;5123131;27;20110;-75
2023/06/10 11:55:14;;;;;;;6.30;4.32;;;;;;;32.05;35.32;100403.69;5124768;27;20151;-75
2023/06/10 11:58:00;;;;;;;8.52;5.25;;;;;;;31.91;36.47;100390.84;5138960;27;20041;-75
2023/06/10 12:01:01;;;;;;;9.75;4.85;;;;;;;31.88;34.18;100395.72;5136007;27;20033;-74
2023/06/10 12:03:46;;;;;;;9.88;5.20;;;;;;;32.50;35.25;100397.69;5144379;27;20034;-76
2023/06/10 12:06:47;;;;;;;11.73;4.72;;;;;;;31.74;34.52;100399.94;5159487;27;20023;-75
2023/06/10 12:09:33;;;;;;;8.18;4.40;;;;;;;31.79;34.31;100403.03;5143647;27;20031;-76
2023/06/10 12:12:19;;;;;;;6.53;4.75;;;;;;;31.52;35.22;100392.47;5158520;27;20096;-74
2023/06/10 12:15:05;;;;;;;7.82;4.80;;;;;;;32.00;34.83;100386.22;5157716;27;20038;-75
2023/06/10 12:17:52;;;;;;;8.60;4.70;;;;;;;32.56;35.33;100388.84;5144088;27;20030;-76
2023/06/10 12:20:38;;;;;;;7.80;6.00;;;;;;;31.85;35.62;100393.38;5158598;27;20046;-76
2023/06/10 12:23:23;;;;;;;11.35;6.07;;;;;;;30.88;36.92;100389.59;5158558;27;20030;-75
2023/06/10 12:26:09;;;;;;;7.75;6.20;;;;;;;30.27;37.55;100379.00;5157829;27;20188;-75
2023/06/10 12:28:55;;;;;;;10.40;5.95;;;;;;;31.10;36.58;100378.19;5143421;27;20033;-76
2023/06/10 12:32:02;;;;;;;8.60;6.75;;;;;;;30.50;36.13;100374.69;5158063;27;20019;-74
2023/06/10 12:34:48;;;;;;;12.95;6.75;;;;;;;30.39;36.53;100376.84;5158185;27;20031;-75
2023/06/10 12:37:34;;;;;;;9.23;6.45;;;;;;;30.61;37.30;100374.41;5158974;27;20019;-75
2023/06/10 12:40:26;;;;;;;15.27;7.13;;;;;;;30.67;37.04;100368.38;5158179;27;20045;-75
2023/06/10 12:43:12;;;;;;;16.27;7.13;;;;;;;30.95;36.79;100374.41;5158236;27;20030;-76
2023/06/10 12:46:12;;;;;;;15.95;6.88;;;;;;;30.62;37.45;100367.16;5158458;27;20115;-75